Time;durP1;ratioP1;P1;durP2;ratioP2;P2;SDS_P1;SDS_P2;PMS_P1;PMS_P2;Temp;Humidity;BMP_temperature;BMP_pressure;BME280_temperature;BME280_humidity;BME280_pressure;Samples;Min_cycle;Max_cycle;Signal;HPM_P1;HPM_P2
2023/02/18 00:01:12;;;;;;;0.70;0.60;;;;;;;;;;5017623;28;20809;-75
2023/02/18 00:03:40;;;;;;;0.70;0.70;;;;;;;;;;5009874;28;20443;-76
2023/02/18 00:06:13;;;;;;;0.70;0.70;;;;;;;;;;5003519;28;20991;-75
2023/02/18 00:08:41;;;;;;;1.47;1.37;;;;;;;;;;5001565;28;20472;-77
2023/02/18 00:11:07;;;;;;;0.70;0.70;;;;;;;;;;5008458;28;20429;-78
2023/02/18 00:13:34;;;;;;;1.07;1.00;;;;;;;;;;5008341;28;20503;-75
2023/02/18 00:16:03;;;;;;;0.70;0.60;;;;;;;;;;5011012;28;20532;-76
2023/02/18 00:18:35;;;;;;;0.70;0.60;;;;;;;;;;5005581;28;20446;-76
2023/02/18 00:21:02;;;;;;;0.80;0.80;;;;;;;;;;5010672;28;20593;-76
2023/02/18 00:23:30;;;;;;;0.70;0.70;;;;;;;;;;5010258;28;20441;-75
2023/02/18 00:26:01;;;;;;;0.70;0.60;;;;;;;;;;5000177;28;20526;-77
2023/02/18 00:28:28;;;;;;;0.70;0.70;;;;;;;;;;5019965;28;20968;-75
2023/02/18 00:30:55;;;;;;;0.70;0.70;;;;;;;;;;5007137;28;21113;-78
2023/02/18 00:33:22;;;;;;;0.80;0.80;;;;;;;;;;5011236;28;20433;-77
2023/02/18 00:35:49;;;;;;;0.83;0.83;;;;;;;;;;5014497;28;20557;-75
2023/02/18 00:38:16;;;;;;;1.27;1.17;;;;;;;;;;5012403;28;20445;-74
2023/02/18 00:40:46;;;;;;;0.70;0.70;;;;;;;;;;5009299;28;20546;-76
2023/02/18 00:43:13;;;;;;;0.70;0.60;;;;;;;;;;5012599;28;20443;-76
2023/02/18 00:45:40;;;;;;;0.67;0.63;;;;;;;;;;5001754;28;20472;-76
2023/02/18 00:48:07;;;;;;;1.10;1.00;;;;;;;;;;5007124;28;20511;-77
2023/02/18 00:50:34;;;;;;;0.93;0.93;;;;;;;;;;5004251;28;20503;-76
2023/02/18 00:53:02;;;;;;;0.80;0.80;;;;;;;;;;5007843;28;20483;-76
2023/02/18 00:55:29;;;;;;;2.73;1.37;;;;;;;;;;5012037;28;20507;-78
2023/02/18 00:57:57;;;;;;;0.60;0.60;;;;;;;;;;5001099;28;20449;-76
2023/02/18 01:00:26;;;;;;;0.70;0.70;;;;;;;;;;5012855;28;20477;-76
2023/02/18 01:02:54;;;;;;;1.00;0.93;;;;;;;;;;5018128;28;20451;-76
2023/02/18 01:05:21;;;;;;;0.80;0.80;;;;;;;;;;4999206;28;20528;-75
2023/02/18 01:07:48;;;;;;;0.70;0.70;;;;;;;;;;5012198;28;20439;-77
2023/02/18 01:10:15;;;;;;;0.70;0.70;;;;;;;;;;5014882;28;20475;-76
2023/02/18 01:12:44;;;;;;;0.80;0.80;;;;;;;;;;4998960;28;20443;-75
2023/02/18 01:15:18;;;;;;;0.80;0.80;;;;;;;;;;5010574;28;20461;-75
2023/02/18 01:18:07;;;;;;;0.70;0.60;;;;;;;;;;5007714;28;20502;-77
2023/02/18 01:20:34;;;;;;;0.70;0.60;;;;;;;;;;5011397;28;20553;-76
2023/02/18 01:23:01;;;;;;;0.70;0.60;;;;;;;;;;4989547;28;20551;-76
2023/02/18 01:25:28;;;;;;;0.70;0.60;;;;;;;;;;5007516;28;20886;-75
2023/02/18 01:27:55;;;;;;;0.90;0.90;;;;;;;;;;4993478;28;20461;-76
2023/02/18 01:30:23;;;;;;;0.70;0.70;;;;;;;;;;5004448;28;20517;-77
2023/02/18 01:32:50;;;;;;;0.70;0.60;;;;;;;;;;5007453;28;20549;-76
2023/02/18 01:35:18;;;;;;;0.70;0.70;;;;;;;;;;5007021;28;20479;-76
2023/02/18 01:37:46;;;;;;;2.90;1.73;;;;;;;;;;5025979;28;20454;-75
2023/02/18 01:40:14;;;;;;;0.70;0.70;;;;;;;;;;5009977;28;20543;-77
2023/02/18 01:42:41;;;;;;;0.70;0.60;;;;;;;;;;5009075;28;20481;-76
2023/02/18 01:45:27;;;;;;;0.70;0.70;;;;;;;;;;5009419;28;20426;-76
2023/02/18 01:47:55;;;;;;;0.70;0.70;;;;;;;;;;5011037;28;20973;-75
2023/02/18 01:50:23;;;;;;;0.70;0.70;;;;;;;;;;5015192;28;20559;-76
2023/02/18 01:52:50;;;;;;;0.70;0.60;;;;;;;;;;4994842;28;20520;-75
2023/02/18 01:55:17;;;;;;;1.43;1.30;;;;;;;;;;5004496;28;20437;-76
2023/02/18 01:57:43;;;;;;;0.70;0.70;;;;;;;;;;5005207;28;20829;-76
2023/02/18 02:00:13;;;;;;;0.70;0.70;;;;;;;;;;4998630;28;20454;-75
2023/02/18 02:02:43;;;;;;;0.70;0.60;;;;;;;;;;5000757;28;20849;-77
2023/02/18 02:05:12;;;;;;;1.20;1.10;;;;;;;;;;4999550;28;20565;-77
2023/02/18 02:07:40;;;;;;;2.60;1.90;;;;;;;;;;5026783;28;20811;-76
2023/02/18 02:10:08;;;;;;;0.70;0.60;;;;;;;;;;5002716;28;20487;-74
2023/02/18 02:12:39;;;;;;;0.80;0.80;;;;;;;;;;5005842;28;20538;-77
2023/02/18 02:15:20;;;;;;;1.83;1.67;;;;;;;;;;5016274;28;20577;-77
2023/02/18 02:17:57;;;;;;;0.70;0.70;;;;;;;;;;5008191;28;20465;-77
2023/02/18 02:20:39;;;;;;;0.80;0.80;;;;;;;;;;5006567;28;20470;-79
2023/02/18 02:23:34;;;;;;;0.73;0.73;;;;;;;;;;4975590;28;20902;-77
2023/02/18 02:26:30;;;;;;;0.70;0.70;;;;;;;;;;4924260;28;20512;-78
2023/02/18 02:29:08;;;;;;;0.70;0.70;;;;;;;;;;5009577;28;20452;-78
2023/02/18 02:31:58;;;;;;;0.70;0.70;;;;;;;;;;4995478;28;20450;-76
2023/02/18 02:34:44;;;;;;;0.80;0.80;;;;;;;;;;5016017;28;20453;-76
2023/02/18 02:37:16;;;;;;;0.60;0.60;;;;;;;;;;4987899;28;20474;-76
2023/02/18 02:39:52;;;;;;;0.70;0.70;;;;;;;;;;5003132;28;20426;-78
2023/02/18 02:42:29;;;;;;;0.70;0.70;;;;;;;;;;5000669;28;20560;-75
2023/02/18 02:45:03;;;;;;;0.70;0.60;;;;;;;;;;5013245;28;20441;-77
2023/02/18 02:47:36;;;;;;;1.30;1.00;;;;;;;;;;5013882;28;20532;-75
2023/02/18 02:50:10;;;;;;;0.70;0.60;;;;;;;;;;5007637;28;20474;-78
2023/02/18 02:52:39;;;;;;;0.70;0.70;;;;;;;;;;5009710;28;20458;-76
2023/02/18 02:55:12;;;;;;;0.70;0.70;;;;;;;;;;5011043;28;20716;-78
2023/02/18 02:57:49;;;;;;;0.70;0.70;;;;;;;;;;4987317;28;20449;-75
2023/02/18 03:00:28;;;;;;;0.70;0.60;;;;;;;;;;5000006;28;20455;-76
2023/02/18 03:03:37;;;;;;;0.97;0.97;;;;;;;;;;4995958;28;20462;-77
2023/02/18 03:06:23;;;;;;;1.37;1.27;;;;;;;;;;4966976;28;20479;-77
2023/02/18 03:08:55;;;;;;;0.77;0.77;;;;;;;;;;4966578;28;20459;-76
2023/02/18 03:11:27;;;;;;;0.70;0.60;;;;;;;;;;4993793;28;20449;-77
2023/02/18 03:14:02;;;;;;;0.80;0.80;;;;;;;;;;5002831;28;20443;-75
2023/02/18 03:16:42;;;;;;;0.80;0.80;;;;;;;;;;4997581;28;20461;-76
2023/02/18 03:19:22;;;;;;;0.73;0.73;;;;;;;;;;4998974;28;20917;-77
2023/02/18 03:22:00;;;;;;;0.70;0.70;;;;;;;;;;4988961;28;20476;-76
2023/02/18 03:24:49;;;;;;;0.70;0.70;;;;;;;;;;5008019;28;20449;-77
2023/02/18 03:27:22;;;;;;;0.70;0.70;;;;;;;;;;5004345;28;20538;-75
2023/02/18 03:30:16;;;;;;;0.70;0.70;;;;;;;;;;5016944;28;20572;-75
2023/02/18 03:32:52;;;;;;;0.80;0.80;;;;;;;;;;4996008;28;20964;-76
2023/02/18 03:35:26;;;;;;;0.70;0.70;;;;;;;;;;4992266;28;20529;-77
2023/02/18 03:38:09;;;;;;;0.70;0.70;;;;;;;;;;5008600;28;20508;-78
2023/02/18 03:40:39;;;;;;;0.70;0.70;;;;;;;;;;5007698;28;20548;-78
2023/02/18 03:43:10;;;;;;;0.70;0.60;;;;;;;;;;5011509;28;20460;-77
2023/02/18 03:45:39;;;;;;;0.70;0.70;;;;;;;;;;4976612;28;20450;-78
2023/02/18 03:48:15;;;;;;;0.70;0.70;;;;;;;;;;4986354;28;20471;-79
2023/02/18 03:50:45;;;;;;;0.70;0.70;;;;;;;;;;4989013;28;20474;-76
2023/02/18 03:53:15;;;;;;;0.70;0.70;;;;;;;;;;5001025;28;20452;-77
2023/02/18 03:55:46;;;;;;;0.70;0.60;;;;;;;;;;5005557;28;20589;-78
2023/02/18 03:58:14;;;;;;;0.70;0.70;;;;;;;;;;5003554;28;20446;-79
2023/02/18 04:00:45;;;;;;;0.70;0.70;;;;;;;;;;5001816;28;20448;-77
2023/02/18 04:03:34;;;;;;;0.80;0.80;;;;;;;;;;5014544;28;20792;-77
2023/02/18 04:06:03;;;;;;;0.70;0.70;;;;;;;;;;5009206;28;20477;-78
2023/02/18 04:08:31;;;;;;;0.70;0.70;;;;;;;;;;5010802;28;20453;-78
2023/02/18 04:11:00;;;;;;;0.80;0.80;;;;;;;;;;5007889;28;20546;-77
2023/02/18 04:13:27;;;;;;;0.70;0.60;;;;;;;;;;5005846;28;20463;-76
2023/02/18 04:15:54;;;;;;;0.70;0.70;;;;;;;;;;5011050;28;20450;-76
2023/02/18 04:18:21;;;;;;;0.70;0.70;;;;;;;;;;5008881;28;20562;-78
2023/02/18 04:20:48;;;;;;;0.70;0.70;;;;;;;;;;5009706;28;20478;-77
2023/02/18 04:23:16;;;;;;;0.67;0.67;;;;;;;;;;5001548;28;20442;-78
2023/02/18 04:25:46;;;;;;;0.70;0.60;;;;;;;;;;5004515;28;20554;-77
2023/02/18 04:28:14;;;;;;;0.70;0.60;;;;;;;;;;5001039;28;20446;-78
2023/02/18 04:30:41;;;;;;;0.70;0.70;;;;;;;;;;5007153;28;20516;-77
2023/02/18 04:33:08;;;;;;;0.60;0.60;;;;;;;;;;5004743;28;21194;-77
2023/02/18 04:35:35;;;;;;;0.70;0.60;;;;;;;;;;5009935;28;20566;-78
2023/02/18 04:38:02;;;;;;;0.70;0.70;;;;;;;;;;5012082;28;20539;-79
2023/02/18 04:40:29;;;;;;;0.70;0.67;;;;;;;;;;5012453;28;20971;-78
2023/02/18 04:42:58;;;;;;;0.70;0.70;;;;;;;;;;5009053;28;20444;-75
2023/02/18 04:45:25;;;;;;;0.60;0.60;;;;;;;;;;5012808;28;20436;-76
2023/02/18 04:47:52;;;;;;;0.70;0.60;;;;;;;;;;5017270;28;20444;-77
2023/02/18 04:50:18;;;;;;;0.70;0.70;;;;;;;;;;5013169;28;20476;-78
2023/02/18 04:52:47;;;;;;;0.70;0.70;;;;;;;;;;5003363;28;20827;-78
2023/02/18 04:55:16;;;;;;;0.67;0.60;;;;;;;;;;5010431;28;20441;-77
2023/02/18 04:57:43;;;;;;;0.70;0.70;;;;;;;;;;5008642;28;20964;-78
2023/02/18 05:00:13;;;;;;;0.80;0.80;;;;;;;;;;5005710;28;20457;-76
2023/02/18 05:02:40;;;;;;;0.70;0.70;;;;;;;;;;5015532;28;20448;-78
2023/02/18 05:05:09;;;;;;;0.70;0.60;;;;;;;;;;5005488;28;20595;-78
2023/02/18 05:07:37;;;;;;;0.70;0.70;;;;;;;;;;5003388;28;20436;-81
2023/02/18 05:10:05;;;;;;;0.70;0.60;;;;;;;;;;4993685;28;20474;-74
2023/02/18 05:12:32;;;;;;;0.70;0.70;;;;;;;;;;4997161;28;20448;-75
2023/02/18 05:14:59;;;;;;;0.70;0.70;;;;;;;;;;5015379;28;20451;-76
2023/02/18 05:17:27;;;;;;;0.70;0.70;;;;;;;;;;5010975;28;20453;-76
2023/02/18 05:19:54;;;;;;;0.70;0.70;;;;;;;;;;5009233;28;20484;-76
2023/02/18 05:22:20;;;;;;;0.80;0.80;;;;;;;;;;5011635;28;20444;-76
2023/02/18 05:25:09;;;;;;;0.67;0.67;;;;;;;;;;5006687;28;20823;-76
2023/02/18 05:27:39;;;;;;;0.70;0.70;;;;;;;;;;5013691;28;20460;-75
2023/02/18 05:30:06;;;;;;;0.60;0.60;;;;;;;;;;4987462;28;20512;-76
2023/02/18 05:32:35;;;;;;;0.60;0.60;;;;;;;;;;5008300;28;20976;-79
2023/02/18 05:35:02;;;;;;;0.70;0.70;;;;;;;;;;5022070;28;20473;-78
2023/02/18 05:37:47;;;;;;;0.70;0.63;;;;;;;;;;5005180;28;20966;-76
2023/02/18 05:40:14;;;;;;;0.60;0.60;;;;;;;;;;5014422;28;20460;-77
2023/02/18 05:42:41;;;;;;;0.70;0.70;;;;;;;;;;5003467;28;20484;-77
2023/02/18 05:45:08;;;;;;;0.60;0.60;;;;;;;;;;5003362;28;20544;-78
2023/02/18 05:47:37;;;;;;;0.70;0.70;;;;;;;;;;5004838;28;20492;-79
2023/02/18 05:50:04;;;;;;;0.70;0.70;;;;;;;;;;4993401;28;20792;-77
2023/02/18 05:52:31;;;;;;;0.60;0.60;;;;;;;;;;5009681;28;20508;-78
2023/02/18 05:54:58;;;;;;;0.60;0.50;;;;;;;;;;4996889;28;20463;-77
2023/02/18 05:57:25;;;;;;;0.60;0.60;;;;;;;;;;5008142;28;20458;-78
2023/02/18 05:59:51;;;;;;;0.70;0.70;;;;;;;;;;5008546;28;20495;-78
2023/02/18 06:02:18;;;;;;;0.60;0.60;;;;;;;;;;5010434;28;20699;-78
2023/02/18 06:04:46;;;;;;;0.60;0.60;;;;;;;;;;5000403;28;20559;-77
2023/02/18 06:07:13;;;;;;;0.60;0.60;;;;;;;;;;5090757;23;20822;-75
2023/02/18 06:09:40;;;;;;;0.63;0.63;;;;;;;;;;5016785;28;20440;-74
2023/02/18 06:12:07;;;;;;;0.70;0.70;;;;;;;;;;5008803;28;20791;-75
2023/02/18 06:14:35;;;;;;;0.60;0.60;;;;;;;;;;5003895;28;20989;-75
2023/02/18 06:17:01;;;;;;;0.60;0.50;;;;;;;;;;5015985;28;20450;-74
2023/02/18 06:19:28;;;;;;;0.70;0.70;;;;;;;;;;5001642;28;20795;-75
2023/02/18 06:21:56;;;;;;;0.60;0.60;;;;;;;;;;5006164;28;20458;-73
2023/02/18 06:24:23;;;;;;;0.60;0.60;;;;;;;;;;5005831;28;20497;-74
2023/02/18 06:26:50;;;;;;;0.60;0.60;;;;;;;;;;5015604;28;20450;-75
2023/02/18 06:29:17;;;;;;;0.60;0.60;;;;;;;;;;5012159;28;20477;-73
2023/02/18 06:31:44;;;;;;;0.60;0.50;;;;;;;;;;5002413;28;20507;-75
2023/02/18 06:34:11;;;;;;;0.67;0.60;;;;;;;;;;5008603;28;20476;-73
2023/02/18 06:36:37;;;;;;;0.60;0.60;;;;;;;;;;5010670;28;20532;-74
2023/02/18 06:39:06;;;;;;;0.60;0.60;;;;;;;;;;5014518;28;20448;-72
2023/02/18 06:41:32;;;;;;;0.70;0.70;;;;;;;;;;5014552;28;20428;-74
2023/02/18 06:43:59;;;;;;;0.60;0.60;;;;;;;;;;5011632;28;20437;-73
2023/02/18 06:46:26;;;;;;;0.70;0.70;;;;;;;;;;5026490;28;20454;-72
2023/02/18 06:48:53;;;;;;;0.60;0.60;;;;;;;;;;5001509;28;20519;-74
2023/02/18 06:51:20;;;;;;;0.70;0.70;;;;;;;;;;5014599;28;21054;-75
2023/02/18 06:53:47;;;;;;;0.60;0.60;;;;;;;;;;5002750;28;20467;-72
2023/02/18 06:56:16;;;;;;;0.60;0.60;;;;;;;;;;5009271;28;20461;-73
2023/02/18 06:58:43;;;;;;;0.70;0.70;;;;;;;;;;5008160;28;20782;-72
2023/02/18 07:01:10;;;;;;;0.70;0.70;;;;;;;;;;4995160;28;20480;-75
2023/02/18 07:03:37;;;;;;;0.60;0.60;;;;;;;;;;5018795;28;20460;-73
2023/02/18 07:06:04;;;;;;;0.60;0.57;;;;;;;;;;5007518;28;20467;-74
2023/02/18 07:08:35;;;;;;;0.60;0.60;;;;;;;;;;5005755;28;20488;-73
2023/02/18 07:11:02;;;;;;;0.70;0.67;;;;;;;;;;5012840;28;20468;-75
2023/02/18 07:13:33;;;;;;;0.60;0.57;;;;;;;;;;5011117;28;20441;-74
2023/02/18 07:16:00;;;;;;;0.70;0.70;;;;;;;;;;5006876;28;20891;-73
2023/02/18 07:18:27;;;;;;;0.70;0.70;;;;;;;;;;5008054;28;20438;-75
2023/02/18 07:20:54;;;;;;;0.70;0.70;;;;;;;;;;5007797;28;20441;-75
2023/02/18 07:23:20;;;;;;;0.60;0.60;;;;;;;;;;5011128;28;21387;-73
2023/02/18 07:25:47;;;;;;;0.60;0.60;;;;;;;;;;5004156;28;20456;-73
2023/02/18 07:28:15;;;;;;;0.70;0.70;;;;;;;;;;5000099;28;20792;-75
2023/02/18 07:30:43;;;;;;;0.60;0.60;;;;;;;;;;5004588;28;20553;-73
2023/02/18 07:33:09;;;;;;;0.70;0.60;;;;;;;;;;5001634;28;20446;-73
2023/02/18 07:35:40;;;;;;;0.70;0.70;;;;;;;;;;5014401;28;20479;-73
2023/02/18 07:38:07;;;;;;;0.70;0.70;;;;;;;;;;5003092;28;21269;-74
2023/02/18 07:40:52;;;;;;;0.70;0.70;;;;;;;;;;5005147;28;20481;-76
2023/02/18 07:43:20;;;;;;;1.43;1.17;;;;;;;;;;5017390;28;20464;-74
2023/02/18 07:45:49;;;;;;;1.30;0.80;;;;;;;;;;5021226;28;20504;-71
2023/02/18 07:48:16;;;;;;;0.70;0.60;;;;;;;;;;5006731;28;20442;-74
2023/02/18 07:50:43;;;;;;;0.70;0.67;;;;;;;;;;5011602;28;20535;-75
2023/02/18 07:53:11;;;;;;;0.70;0.60;;;;;;;;;;5009485;28;20577;-73
2023/02/18 07:55:50;;;;;;;0.70;0.70;;;;;;;;;;5013217;28;20964;-73
2023/02/18 07:58:18;;;;;;;0.70;0.70;;;;;;;;;;5011684;28;20801;-73
2023/02/18 08:00:46;;;;;;;0.70;0.70;;;;;;;;;;5005013;28;20488;-75
2023/02/18 08:03:15;;;;;;;0.70;0.60;;;;;;;;;;5010089;28;20781;-74
2023/02/18 08:05:44;;;;;;;2.80;1.00;;;;;;;;;;5004473;28;20435;-76
2023/02/18 08:08:11;;;;;;;0.67;0.60;;;;;;;;;;4999312;28;20477;-72
2023/02/18 08:10:38;;;;;;;0.60;0.60;;;;;;;;;;5010438;28;20439;-72
2023/02/18 08:13:05;;;;;;;0.70;0.70;;;;;;;;;;5007806;28;20453;-74
2023/02/18 08:15:33;;;;;;;0.60;0.60;;;;;;;;;;5018193;28;20453;-76
2023/02/18 08:18:00;;;;;;;0.80;0.80;;;;;;;;;;5012396;28;20431;-74
2023/02/18 08:20:28;;;;;;;1.93;1.83;;;;;;;;;;5010880;28;21098;-74
2023/02/18 08:22:56;;;;;;;0.70;0.70;;;;;;;;;;5007913;28;20502;-75
2023/02/18 08:25:23;;;;;;;0.70;0.70;;;;;;;;;;4997993;28;20447;-73
2023/02/18 08:27:55;;;;;;;0.73;0.73;;;;;;;;;;5015550;28;20425;-77
2023/02/18 08:30:43;;;;;;;0.60;0.60;;;;;;;;;;4992748;28;20884;-76
2023/02/18 08:33:10;;;;;;;0.60;0.60;;;;;;;;;;5010894;28;20826;-74
2023/02/18 08:35:42;;;;;;;0.70;0.60;;;;;;;;;;5014122;28;20477;-72
2023/02/18 08:38:09;;;;;;;0.63;0.60;;;;;;;;;;5008038;28;20651;-76
2023/02/18 08:40:36;;;;;;;0.70;0.60;;;;;;;;;;5011962;28;20500;-74
2023/02/18 08:43:03;;;;;;;0.70;0.70;;;;;;;;;;5004026;28;20822;-75
2023/02/18 08:45:31;;;;;;;0.70;0.70;;;;;;;;;;5004694;28;20852;-75
2023/02/18 08:48:01;;;;;;;0.60;0.60;;;;;;;;;;5004676;28;20963;-75
2023/02/18 08:50:47;;;;;;;0.70;0.70;;;;;;;;;;5006095;28;20461;-73
2023/02/18 08:53:14;;;;;;;0.70;0.60;;;;;;;;;;5009095;28;20826;-74
2023/02/18 08:55:42;;;;;;;0.60;0.60;;;;;;;;;;5014266;28;20439;-73
2023/02/18 08:58:09;;;;;;;0.60;0.60;;;;;;;;;;5011255;28;20484;-74
2023/02/18 09:00:36;;;;;;;0.70;0.60;;;;;;;;;;5022664;28;20837;-74
2023/02/18 09:03:03;;;;;;;0.70;0.70;;;;;;;;;;5018399;28;20442;-75
2023/02/18 09:05:30;;;;;;;0.90;0.90;;;;;;;;;;5014053;28;20925;-74
2023/02/18 09:07:58;;;;;;;0.73;0.73;;;;;;;;;;5011834;28;20508;-74
2023/02/18 09:10:24;;;;;;;0.70;0.70;;;;;;;;;;5009355;28;20559;-75
2023/02/18 09:12:51;;;;;;;0.70;0.60;;;;;;;;;;4999492;28;21109;-71
2023/02/18 09:15:18;;;;;;;0.70;0.60;;;;;;;;;;5006983;28;20451;-73
2023/02/18 09:17:45;;;;;;;0.67;0.67;;;;;;;;;;5007820;28;20434;-76
2023/02/18 09:20:12;;;;;;;0.87;0.87;;;;;;;;;;5009976;28;20981;-73
2023/02/18 09:22:39;;;;;;;0.73;0.73;;;;;;;;;;5016634;28;20726;-72
2023/02/18 09:25:08;;;;;;;0.70;0.70;;;;;;;;;;5003157;28;20456;-74
2023/02/18 09:27:36;;;;;;;0.70;0.70;;;;;;;;;;5009938;28;20484;-73
2023/02/18 09:30:04;;;;;;;0.70;0.70;;;;;;;;;;5006792;28;20453;-75
2023/02/18 09:32:31;;;;;;;0.70;0.70;;;;;;;;;;5016881;28;21171;-73
2023/02/18 09:35:01;;;;;;;0.70;0.63;;;;;;;;;;5020199;28;20467;-74
2023/02/18 09:37:28;;;;;;;0.70;0.70;;;;;;;;;;5021407;28;21169;-74
2023/02/18 09:39:56;;;;;;;0.70;0.70;;;;;;;;;;5020357;28;20459;-74
2023/02/18 09:42:28;;;;;;;0.70;0.70;;;;;;;;;;5008294;28;20477;-75
2023/02/18 09:44:56;;;;;;;0.80;0.80;;;;;;;;;;5010892;28;20452;-74
2023/02/18 09:47:27;;;;;;;0.70;0.70;;;;;;;;;;5010795;28;20451;-75
2023/02/18 09:50:17;;;;;;;1.23;1.00;;;;;;;;;;5008122;28;20470;-75
2023/02/18 09:52:45;;;;;;;0.70;0.60;;;;;;;;;;5007656;28;20489;-75
2023/02/18 09:55:37;;;;;;;0.70;0.60;;;;;;;;;;5006369;28;20452;-75
2023/02/18 09:58:10;;;;;;;0.70;0.60;;;;;;;;;;5024173;28;20457;-74
2023/02/18 10:00:39;;;;;;;0.70;0.70;;;;;;;;;;5018684;28;20518;-76
2023/02/18 10:03:28;;;;;;;0.70;0.60;;;;;;;;;;5006457;28;20432;-72
2023/02/18 10:06:16;;;;;;;0.70;0.70;;;;;;;;;;5008736;28;20462;-74
2023/02/18 10:09:04;;;;;;;0.70;0.70;;;;;;;;;;5010484;28;20454;-74
2023/02/18 10:11:31;;;;;;;0.60;0.60;;;;;;;;;;5009262;28;20475;-74
2023/02/18 10:14:01;;;;;;;0.70;0.60;;;;;;;;;;5006786;28;20897;-75
2023/02/18 10:16:28;;;;;;;0.70;0.70;;;;;;;;;;5021372;28;20483;-72
2023/02/18 10:19:19;;;;;;;0.70;0.70;;;;;;;;;;5026653;28;20855;-72
2023/02/18 10:21:46;;;;;;;0.70;0.60;;;;;;;;;;5012885;28;20515;-72
2023/02/18 10:24:18;;;;;;;0.70;0.70;;;;;;;;;;5009193;28;20460;-74
2023/02/18 10:26:48;;;;;;;0.70;0.60;;;;;;;;;;5000470;28;20440;-74
2023/02/18 10:29:19;;;;;;;0.70;0.70;;;;;;;;;;5009542;28;20463;-75
2023/02/18 10:31:51;;;;;;;0.70;0.70;;;;;;;;;;5020638;28;20792;-74
2023/02/18 10:34:21;;;;;;;0.70;0.70;;;;;;;;;;5002509;28;20454;-73
2023/02/18 10:36:53;;;;;;;0.70;0.70;;;;;;;;;;5016075;28;20602;-74
2023/02/18 10:39:31;;;;;;;0.70;0.70;;;;;;;;;;5005220;28;20483;-73
2023/02/18 10:42:04;;;;;;;0.70;0.60;;;;;;;;;;5014182;28;20453;-74
2023/02/18 10:44:36;;;;;;;0.70;0.70;;;;;;;;;;5007288;28;20487;-73
2023/02/18 10:47:08;;;;;;;0.70;0.70;;;;;;;;;;5007036;28;20476;-74
2023/02/18 10:49:50;;;;;;;0.70;0.70;;;;;;;;;;5012479;28;20441;-76
2023/02/18 10:52:18;;;;;;;0.70;0.60;;;;;;;;;;5005919;28;20567;-75
2023/02/18 10:54:49;;;;;;;0.70;0.70;;;;;;;;;;5030348;28;20461;-70
2023/02/18 10:57:46;;;;;;;0.70;0.70;;;;;;;;;;5007792;28;20455;-74
2023/02/18 11:00:19;;;;;;;0.70;0.70;;;;;;;;;;5020716;28;20465;-73
2023/02/18 11:02:46;;;;;;;1.07;0.97;;;;;;;;;;5026601;28;20900;-74
2023/02/18 11:05:18;;;;;;;0.80;0.80;;;;;;;;;;5008476;28;20446;-74
2023/02/18 11:07:46;;;;;;;0.70;0.70;;;;;;;;;;5018520;28;20571;-75
2023/02/18 11:10:15;;;;;;;0.70;0.70;;;;;;;;;;5001883;28;20449;-76
2023/02/18 11:12:44;;;;;;;0.63;0.60;;;;;;;;;;5019291;28;20986;-73
2023/02/18 11:15:21;;;;;;;0.73;0.73;;;;;;;;;;5001359;28;20463;-73
2023/02/18 11:17:49;;;;;;;0.70;0.70;;;;;;;;;;5004811;28;20464;-74
2023/02/18 11:20:24;;;;;;;0.60;0.60;;;;;;;;;;5012980;28;20524;-72
2023/02/18 11:22:55;;;;;;;0.67;0.67;;;;;;;;;;5007737;28;20472;-72
2023/02/18 11:25:23;;;;;;;0.80;0.80;;;;;;;;;;5005235;28;20480;-76
2023/02/18 11:28:24;;;;;;;0.70;0.70;;;;;;;;;;5014629;28;20534;-74
2023/02/18 11:30:55;;;;;;;0.60;0.60;;;;;;;;;;5023277;28;20441;-75
2023/02/18 11:33:23;;;;;;;0.70;0.60;;;;;;;;;;5007967;28;21014;-75
2023/02/18 11:35:51;;;;;;;0.60;0.60;;;;;;;;;;5011501;28;20465;-75
2023/02/18 11:38:22;;;;;;;0.70;0.70;;;;;;;;;;5013831;28;20455;-74
2023/02/18 11:40:53;;;;;;;0.63;0.60;;;;;;;;;;5009740;28;20453;-74
2023/02/18 11:43:20;;;;;;;0.70;0.70;;;;;;;;;;5016527;28;20971;-73
2023/02/18 11:46:06;;;;;;;0.80;0.80;;;;;;;;;;5004314;28;20992;-74
2023/02/18 11:48:34;;;;;;;0.80;0.80;;;;;;;;;;5001096;28;20455;-74
2023/02/18 11:51:22;;;;;;;0.63;0.63;;;;;;;;;;5002752;28;20450;-74
2023/02/18 11:53:59;;;;;;;2.80;1.03;;;;;;;;;;5024318;28;20543;-77
2023/02/18 11:56:28;;;;;;;0.70;0.70;;;;;;;;;;4993098;28;20548;-73
2023/02/18 11:58:58;;;;;;;0.60;0.60;;;;;;;;;;5010773;28;20450;-72
2023/02/18 12:01:34;;;;;;;0.60;0.60;;;;;;;;;;5007640;28;20533;-75
2023/02/18 12:04:06;;;;;;;0.80;0.80;;;;;;;;;;4989548;28;20534;-74
2023/02/18 12:06:34;;;;;;;0.70;0.70;;;;;;;;;;5029174;28;20450;-75
2023/02/18 12:09:04;;;;;;;0.73;0.73;;;;;;;;;;5012178;28;20440;-73
2023/02/18 12:11:35;;;;;;;0.60;0.60;;;;;;;;;;5008234;28;20993;-74
2023/02/18 12:14:24;;;;;;;1.23;1.07;;;;;;;;;;5020993;28;20441;-73
2023/02/18 12:17:01;;;;;;;0.70;0.60;;;;;;;;;;5016680;28;20818;-74
2023/02/18 12:19:47;;;;;;;0.70;0.70;;;;;;;;;;5007685;28;20684;-75
2023/02/18 12:22:18;;;;;;;0.70;0.70;;;;;;;;;;4999780;28;20473;-75
2023/02/18 12:24:53;;;;;;;0.70;0.70;;;;;;;;;;4999130;28;20454;-74
2023/02/18 12:27:42;;;;;;;0.70;0.70;;;;;;;;;;5004902;28;20800;-73
2023/02/18 12:30:23;;;;;;;0.70;0.70;;;;;;;;;;5018915;28;20457;-72
2023/02/18 12:32:53;;;;;;;0.70;0.60;;;;;;;;;;5004721;28;20555;-75
2023/02/18 12:35:31;;;;;;;0.60;0.60;;;;;;;;;;5009189;28;20460;-73
2023/02/18 12:38:14;;;;;;;0.70;0.70;;;;;;;;;;5010109;28;20720;-75
2023/02/18 12:40:50;;;;;;;0.63;0.63;;;;;;;;;;5001824;28;20987;-75
2023/02/18 12:43:20;;;;;;;0.60;0.60;;;;;;;;;;4999309;28;20492;-73
2023/02/18 12:45:55;;;;;;;0.60;0.60;;;;;;;;;;5024355;28;20781;-76
2023/02/18 12:48:29;;;;;;;0.60;0.60;;;;;;;;;;5005611;28;20588;-77
2023/02/18 12:51:04;;;;;;;0.60;0.57;;;;;;;;;;5011039;28;20471;-76
2023/02/18 12:53:44;;;;;;;0.60;0.60;;;;;;;;;;5010351;28;20964;-75
2023/02/18 12:56:26;;;;;;;1.07;1.07;;;;;;;;;;5004728;28;20801;-77
2023/02/18 12:58:56;;;;;;;0.60;0.60;;;;;;;;;;5005836;28;20996;-78
2023/02/18 13:01:30;;;;;;;0.70;0.70;;;;;;;;;;5001573;28;20447;-77
2023/02/18 13:04:16;;;;;;;0.83;0.83;;;;;;;;;;5004869;28;20439;-76
2023/02/18 13:06:52;;;;;;;0.60;0.60;;;;;;;;;;5007909;28;20955;-76
2023/02/18 13:09:25;;;;;;;0.70;0.70;;;;;;;;;;5005148;28;20451;-76
2023/02/18 13:11:56;;;;;;;0.70;0.70;;;;;;;;;;5025731;28;20529;-76
2023/02/18 13:14:26;;;;;;;0.70;0.70;;;;;;;;;;5012740;28;20469;-78
2023/02/18 13:16:54;;;;;;;1.00;0.90;;;;;;;;;;5020214;28;20492;-76
2023/02/18 13:19:22;;;;;;;1.40;1.30;;;;;;;;;;5024113;28;21016;-77
2023/02/18 13:21:51;;;;;;;0.77;0.77;;;;;;;;;;5009299;28;20531;-78
2023/02/18 13:24:22;;;;;;;0.70;0.70;;;;;;;;;;5011280;28;20462;-78
2023/02/18 13:26:52;;;;;;;0.60;0.60;;;;;;;;;;5007000;28;20539;-75
2023/02/18 13:29:23;;;;;;;0.80;0.80;;;;;;;;;;5010364;28;20551;-75
2023/02/18 13:31:56;;;;;;;0.70;0.70;;;;;;;;;;5020702;28;20449;-77
2023/02/18 13:34:28;;;;;;;0.70;0.70;;;;;;;;;;5009523;28;20470;-77
2023/02/18 13:37:00;;;;;;;0.60;0.60;;;;;;;;;;5007326;28;20537;-75
2023/02/18 13:39:28;;;;;;;0.60;0.60;;;;;;;;;;5006196;28;20486;-76
2023/02/18 13:42:11;;;;;;;0.70;0.70;;;;;;;;;;5004567;28;20909;-77
2023/02/18 13:44:56;;;;;;;0.60;0.60;;;;;;;;;;5003415;28;20820;-77
2023/02/18 13:47:36;;;;;;;0.90;0.90;;;;;;;;;;5007414;28;20472;-77
2023/02/18 13:50:15;;;;;;;0.70;0.70;;;;;;;;;;5011129;28;20446;-78
2023/02/18 13:52:43;;;;;;;0.90;0.90;;;;;;;;;;5016125;28;20502;-80
2023/02/18 13:55:17;;;;;;;0.70;0.70;;;;;;;;;;5032255;28;20933;-78
2023/02/18 13:57:48;;;;;;;1.10;1.10;;;;;;;;;;5010998;28;20434;-81
2023/02/18 14:00:19;;;;;;;0.60;0.60;;;;;;;;;;5011209;28;20461;-77
2023/02/18 14:02:55;;;;;;;0.70;0.67;;;;;;;;;;5011946;28;20422;-78
2023/02/18 14:05:23;;;;;;;0.60;0.60;;;;;;;;;;5010948;28;20906;-78
2023/02/18 14:07:51;;;;;;;0.70;0.70;;;;;;;;;;5008708;28;21078;-77
2023/02/18 14:10:27;;;;;;;0.60;0.60;;;;;;;;;;5009176;28;20483;-81
2023/02/18 14:13:16;;;;;;;0.60;0.60;;;;;;;;;;5008391;28;20474;-78
2023/02/18 14:15:49;;;;;;;0.90;0.90;;;;;;;;;;5001406;28;20478;-76
2023/02/18 14:18:24;;;;;;;0.70;0.70;;;;;;;;;;5002855;28;20429;-76
2023/02/18 14:20:51;;;;;;;0.60;0.60;;;;;;;;;;5005947;28;20927;-77
2023/02/18 14:23:42;;;;;;;0.60;0.60;;;;;;;;;;5012748;28;20471;-77
2023/02/18 14:26:15;;;;;;;0.67;0.67;;;;;;;;;;5009450;28;20496;-77
2023/02/18 14:28:44;;;;;;;0.70;0.70;;;;;;;;;;5009400;28;20432;-77
2023/02/18 14:31:24;;;;;;;0.70;0.70;;;;;;;;;;5021988;28;20805;-79
2023/02/18 14:34:14;;;;;;;0.70;0.70;;;;;;;;;;5008351;28;20475;-77
2023/02/18 14:36:45;;;;;;;0.60;0.60;;;;;;;;;;5012128;28;20433;-76
2023/02/18 14:39:23;;;;;;;1.10;1.00;;;;;;;;;;5009043;28;20446;-75
2023/02/18 14:41:53;;;;;;;1.00;0.90;;;;;;;;;;5006147;28;20449;-76
2023/02/18 14:44:53;;;;;;;0.67;0.67;;;;;;;;;;5010884;28;20510;-77
2023/02/18 14:47:26;;;;;;;0.83;0.83;;;;;;;;;;5006765;28;20452;-76
2023/02/18 14:49:54;;;;;;;0.60;0.60;;;;;;;;;;5007197;28;20522;-78
2023/02/18 14:52:26;;;;;;;0.70;0.70;;;;;;;;;;5005197;28;20470;-76
2023/02/18 14:54:53;;;;;;;1.00;0.90;;;;;;;;;;5008400;28;20472;-76
2023/02/18 14:57:31;;;;;;;0.70;0.70;;;;;;;;;;5006489;28;20451;-75
2023/02/18 14:59:58;;;;;;;0.70;0.70;;;;;;;;;;5007397;28;20562;-76
2023/02/18 15:02:29;;;;;;;0.60;0.60;;;;;;;;;;5012144;28;21036;-76
2023/02/18 15:05:15;;;;;;;0.70;0.70;;;;;;;;;;5010824;28;20444;-76
2023/02/18 15:08:03;;;;;;;0.70;0.70;;;;;;;;;;5012899;28;20461;-75
2023/02/18 15:10:36;;;;;;;0.60;0.50;;;;;;;;;;5010066;28;21002;-78